createdAt,value
2019-04-21T00:01:16.454Z,54.66
2019-04-21T00:03:55.560Z,54.68
2019-04-21T00:07:02.935Z,53.86
2019-04-21T00:09:27.816Z,53.82
2019-04-21T00:11:57.291Z,53.97
2019-04-21T00:14:22.138Z,54.13
2019-04-21T00:16:54.187Z,54.97
2019-04-21T00:19:45.990Z,55.44
2019-04-21T00:22:36.739Z,54.58
2019-04-21T00:25:11.863Z,56.92
2019-04-21T00:27:47.836Z,58.12
2019-04-21T00:30:26.968Z,58.21
2019-04-21T00:32:52.399Z,56.16
2019-04-21T00:35:20.726Z,56.86
2019-04-21T00:38:14.903Z,57.41
2019-04-21T00:40:52.102Z,58.59
2019-04-21T00:43:19.790Z,58.06
2019-04-21T00:45:49.138Z,59.49
2019-04-21T00:48:37.846Z,60.71
2019-04-21T00:53:57.931Z,66.00
2019-04-21T00:56:27.705Z,65.16
2019-04-21T00:59:10.099Z,64.15
2019-04-21T01:01:38.046Z,63.65
2019-04-21T01:04:19.681Z,62.17
2019-04-21T01:06:49.637Z,62.18
2019-04-21T01:09:26.572Z,63.00
2019-04-21T01:12:05.204Z,65.00
2019-04-21T01:14:40.971Z,64.71
2019-04-21T01:17:14.476Z,64.12
2019-04-21T01:19:47.091Z,64.50
2019-04-21T01:22:00.687Z,64.53
2019-04-21T01:24:39.653Z,64.56
2019-04-21T01:27:18.535Z,64.75
2019-04-21T01:30:09.999Z,65.36
2019-04-21T01:32:46.242Z,64.69
2019-04-21T01:35:15.094Z,64.39
2019-04-21T01:37:56.040Z,64.11
2019-04-21T01:40:29.586Z,63.36
2019-04-21T01:43:02.829Z,63.94
2019-04-21T01:45:42.395Z,64.58
2019-04-21T01:48:10.353Z,64.32
2019-04-21T01:50:51.578Z,65.01
2019-04-21T01:53:45.725Z,64.82
2019-04-21T01:56:30.436Z,64.64
2019-04-21T01:58:56.407Z,64.47
2019-04-21T02:01:42.329Z,65.00
2019-04-21T02:04:24.021Z,65.69
2019-04-21T02:06:59.938Z,65.74
2019-04-21T02:09:30.789Z,65.92
2019-04-21T02:12:08.810Z,67.04
2019-04-21T02:14:52.030Z,66.76
2019-04-21T02:17:23.119Z,67.04
2019-04-21T02:19:51.859Z,67.34
2019-04-21T02:22:35.286Z,67.21
2019-04-21T02:25:08.590Z,67.66
2019-04-21T02:27:42.943Z,67.79
2019-04-21T02:30:29.373Z,67.53
2019-04-21T02:35:52.783Z,68.80
2019-04-21T02:40:51.259Z,71.36
2019-04-21T02:43:25.108Z,71.62
2019-04-21T02:46:04.249Z,72.11
2019-04-21T02:48:39.269Z,72.31
2019-04-21T02:51:10.360Z,72.13
2019-04-21T02:54:07.982Z,72.48
2019-04-21T02:56:28.324Z,71.91
2019-04-21T02:59:12.388Z,71.17
2019-04-21T03:09:44.996Z,70.82
2019-04-21T03:12:22.620Z,70.71
2019-04-21T03:15:03.956Z,71.66
2019-04-21T03:23:07.684Z,69.33
2019-04-21T03:25:33.247Z,70.08
2019-04-21T03:31:01.851Z,72.59
2019-04-21T03:33:41.043Z,73.62
2019-04-21T03:36:13.084Z,75.65
2019-04-21T03:38:18.883Z,75.77
2019-04-21T03:40:52.860Z,76.86
2019-04-21T03:43:29.529Z,77.34
2019-04-21T03:45:58.193Z,77.45
2019-04-21T03:48:47.126Z,78.02
2019-04-21T03:51:25.738Z,79.25
2019-04-21T03:53:48.026Z,79.02
2019-04-21T03:56:43.864Z,78.47
2019-04-21T04:05:24.417Z,77.12
2019-04-21T04:07:59.037Z,77.18
2019-04-21T04:10:31.403Z,78.20
2019-04-21T04:13:07.297Z,78.46
2019-04-21T04:15:48.282Z,76.58
2019-04-21T04:18:29.894Z,78.32
2019-04-21T04:20:56.265Z,81.07
2019-04-21T04:23:35.611Z,81.31
2019-04-21T04:28:51.938Z,74.65
2019-04-21T04:31:27.145Z,74.09
2019-04-21T04:42:26.689Z,67.66
2019-04-21T04:49:53.482Z,58.75
2019-04-21T04:52:37.871Z,57.08
2019-04-21T04:55:08.571Z,54.55
2019-04-21T04:57:55.013Z,52.61
2019-04-21T05:00:25.838Z,52.03
2019-04-21T05:02:55.994Z,49.46
2019-04-21T05:05:46.800Z,50.39
2019-04-21T05:13:21.385Z,48.08
2019-04-21T05:15:55.878Z,45.03
2019-04-21T05:18:26.578Z,47.70
2019-04-21T05:21:18.897Z,44.74
2019-04-21T05:23:31.570Z,47.08
2019-04-21T05:25:57.003Z,45.96
2019-04-21T05:28:35.854Z,43.55
2019-04-21T05:31:39.907Z,41.37
2019-04-21T05:36:56.850Z,40.10
2019-04-21T05:39:46.801Z,39.09
2019-04-21T05:42:22.750Z,41.64
2019-04-21T05:45:18.763Z,43.79
2019-04-21T05:48:02.788Z,40.73
2019-04-21T05:50:27.529Z,40.69
2019-04-21T05:53:00.743Z,38.56
2019-04-21T05:55:54.596Z,38.93
2019-04-21T05:58:13.980Z,40.03
2019-04-21T06:03:43.063Z,37.51
2019-04-21T06:06:14.176Z,36.33
2019-04-21T06:08:46.880Z,35.42
2019-04-21T06:11:20.991Z,35.05
2019-04-21T06:14:02.476Z,40.34
2019-04-21T06:16:36.482Z,42.66
2019-04-21T06:19:04.730Z,41.96
2019-04-21T06:21:45.213Z,44.25
2019-04-21T06:24:16.057Z,43.93
2019-04-21T06:29:34.749Z,40.83
2019-04-21T06:32:20.406Z,43.95
2019-04-21T06:34:59.014Z,44.82
2019-04-21T06:37:40.536Z,43.20
2019-04-21T06:42:43.214Z,45.49
2019-04-21T06:45:12.878Z,44.47
2019-04-21T06:47:49.929Z,42.19
2019-04-21T06:50:24.254Z,43.30
2019-04-21T06:53:01.151Z,43.90
2019-04-21T06:55:27.816Z,44.74
2019-04-21T06:58:05.137Z,46.92
2019-04-21T07:00:45.333Z,46.09
2019-04-21T07:03:27.362Z,44.58
2019-04-21T07:06:03.466Z,45.78
2019-04-21T07:08:34.651Z,41.54
2019-04-21T07:11:04.992Z,39.37
2019-04-21T07:13:41.532Z,40.13
2019-04-21T07:16:23.604Z,42.02
2019-04-21T07:19:03.487Z,44.59
2019-04-21T07:21:34.455Z,42.49
2019-04-21T07:24:14.155Z,43.19
2019-04-21T07:26:44.719Z,40.82
2019-04-21T07:29:20.620Z,42.26
2019-04-21T07:32:01.936Z,41.17
2019-04-21T07:36:59.650Z,44.48
2019-04-21T07:39:34.010Z,45.41
2019-04-21T07:42:10.471Z,42.73
2019-04-21T07:44:39.225Z,43.90
2019-04-21T07:47:27.202Z,42.36
2019-04-21T07:50:24.445Z,43.12
2019-04-21T07:52:53.387Z,44.28
2019-04-21T07:58:02.697Z,44.08
2019-04-21T08:00:45.421Z,43.21
2019-04-21T08:03:19.417Z,42.64
2019-04-21T08:05:59.044Z,43.57
2019-04-21T08:08:29.798Z,42.97
2019-04-21T08:11:01.723Z,39.84
2019-04-21T08:13:55.124Z,41.62
2019-04-21T08:16:24.216Z,41.90
2019-04-21T08:19:11.438Z,40.78
2019-04-21T08:21:43.026Z,45.26
2019-04-21T08:24:15.780Z,40.36
2019-04-21T08:26:58.571Z,39.80
2019-04-21T08:29:39.213Z,39.34
2019-04-21T08:34:54.876Z,39.51
2019-04-21T08:37:21.478Z,39.65
2019-04-21T08:40:04.484Z,39.39
2019-04-21T08:42:30.484Z,40.25
2019-04-21T08:45:12.667Z,39.66
2019-04-21T08:47:50.153Z,39.33
2019-04-21T08:50:15.118Z,40.53
2019-04-21T08:52:56.813Z,41.42
2019-04-21T08:55:39.705Z,39.93
2019-04-21T08:58:41.510Z,41.22
2019-04-21T09:01:25.550Z,40.64
2019-04-21T09:04:21.339Z,40.98
2019-04-21T09:09:23.726Z,38.70
2019-04-21T09:12:07.238Z,39.07
2019-04-21T09:14:50.926Z,38.82
2019-04-21T09:17:20.639Z,38.16
2019-04-21T09:20:13.888Z,36.56
2019-04-21T09:22:44.264Z,37.76
2019-04-21T09:25:26.897Z,37.88
2019-04-21T09:27:55.030Z,39.54
2019-04-21T09:30:13.455Z,37.49
2019-04-21T09:32:49.465Z,38.61
2019-04-21T09:35:23.986Z,38.70
2019-04-21T09:38:07.738Z,36.27
2019-04-21T09:40:45.870Z,37.29
2019-04-21T09:43:25.838Z,34.81
2019-04-21T09:45:57.113Z,33.22
2019-04-21T09:48:46.627Z,30.54
2019-04-21T09:51:13.093Z,30.54
2019-04-21T09:54:00.890Z,29.92
2019-04-21T09:56:45.404Z,32.25
2019-04-21T09:59:25.471Z,32.25
2019-04-21T10:02:00.983Z,30.79
2019-04-21T10:04:31.118Z,32.79
2019-04-21T10:07:23.677Z,32.79
2019-04-21T10:10:03.848Z,28.89
2019-04-21T10:12:51.893Z,28.89
2019-04-21T10:15:29.822Z,29.06
2019-04-21T10:18:11.445Z,28.02
2019-04-21T10:21:07.669Z,26.97
2019-04-21T10:23:57.885Z,28.74
2019-04-21T10:26:38.738Z,27.01
2019-04-21T10:29:42.508Z,29.29
2019-04-21T10:32:23.157Z,28.24
2019-04-21T10:35:05.341Z,28.13
2019-04-21T10:38:00.802Z,28.83
2019-04-21T10:40:23.373Z,27.85
2019-04-21T10:42:58.365Z,26.61
2019-04-21T10:45:32.704Z,26.61
2019-04-21T10:48:07.326Z,25.79
2019-04-21T10:51:03.144Z,27.96
2019-04-21T10:53:40.814Z,25.39
2019-04-21T10:56:23.050Z,27.30
2019-04-21T10:58:50.334Z,26.84
2019-04-21T11:01:27.325Z,26.98
2019-04-21T11:04:23.669Z,26.35
2019-04-21T11:06:58.273Z,28.03
2019-04-21T11:09:29.956Z,28.03
2019-04-21T11:12:04.083Z,26.91
2019-04-21T11:14:38.946Z,26.20
2019-04-21T11:17:14.479Z,27.36
2019-04-21T11:19:48.591Z,27.79
2019-04-21T11:22:25.084Z,25.97
2019-04-21T11:24:58.794Z,25.97
2019-04-21T11:27:33.184Z,24.67
2019-04-21T11:30:07.509Z,27.01
2019-04-21T11:32:46.321Z,27.04
2019-04-21T11:35:27.614Z,27.04
2019-04-21T11:38:12.093Z,26.29
2019-04-21T11:40:39.968Z,24.69
2019-04-21T11:43:15.707Z,25.86
2019-04-21T11:45:50.564Z,25.60
2019-04-21T11:48:28.452Z,24.72
2019-04-21T11:51:01.658Z,25.70
2019-04-21T11:53:35.303Z,24.71
2019-04-21T11:56:09.010Z,24.74
2019-04-21T11:58:43.943Z,26.08
2019-04-21T12:01:18.092Z,26.05
2019-04-21T12:03:51.708Z,25.65
2019-04-21T12:06:32.108Z,26.12
2019-04-21T12:09:11.638Z,25.86
2019-04-21T12:11:45.316Z,26.61
2019-04-21T12:14:23.818Z,25.03
2019-04-21T12:16:57.659Z,26.41
2019-04-21T12:19:34.720Z,25.48
2019-04-21T12:22:16.288Z,24.42
2019-04-21T12:24:45.000Z,25.09
2019-04-21T12:27:20.267Z,24.91
2019-04-21T12:30:04.014Z,24.00
2019-04-21T12:32:54.374Z,25.77
2019-04-21T12:35:28.077Z,24.40
2019-04-21T12:38:02.779Z,26.07
2019-04-21T12:40:36.781Z,26.07
2019-04-21T12:43:10.735Z,24.44
2019-04-21T12:45:44.538Z,25.33
2019-04-21T12:48:18.019Z,24.84
2019-04-21T12:50:52.184Z,24.07
2019-04-21T12:53:25.630Z,24.07
2019-04-21T12:56:00.018Z,25.01
2019-04-21T12:58:33.586Z,25.44
2019-04-21T13:01:07.135Z,25.50
2019-04-21T13:03:41.776Z,25.66
2019-04-21T13:06:15.973Z,25.66
2019-04-21T13:08:56.857Z,24.31
2019-04-21T13:11:23.876Z,24.31
2019-04-21T13:13:57.831Z,25.64
2019-04-21T13:16:31.706Z,24.68
2019-04-21T13:19:05.247Z,24.01
2019-04-21T13:21:38.294Z,23.97
2019-04-21T13:24:11.691Z,23.97
2019-04-21T13:26:52.764Z,24.33
2019-04-21T13:29:23.854Z,24.33
2019-04-21T13:31:58.383Z,23.69
2019-04-21T13:34:31.764Z,25.10
2019-04-21T13:37:07.641Z,24.60
2019-04-21T13:40:14.650Z,25.63
2019-04-21T13:42:45.607Z,25.63
2019-04-21T13:45:06.453Z,25.35
2019-04-21T13:47:42.785Z,25.63
2019-04-21T13:50:17.241Z,25.17
2019-04-21T13:52:52.806Z,25.17
2019-04-21T13:55:27.439Z,24.46
2019-04-21T13:58:02.082Z,24.83
2019-04-21T14:00:35.848Z,23.55
2019-04-21T14:03:10.286Z,23.85
2019-04-21T14:05:44.553Z,24.12
2019-04-21T14:08:18.823Z,24.12
2019-04-21T14:10:53.620Z,24.34
2019-04-21T14:13:27.147Z,23.81
2019-04-21T14:16:02.139Z,23.10
2019-04-21T14:18:38.579Z,23.10
2019-04-21T14:21:11.648Z,23.55
2019-04-21T14:23:49.271Z,25.22
2019-04-21T14:26:24.465Z,25.19
2019-04-21T14:28:58.866Z,26.57
2019-04-21T14:31:34.515Z,26.57
2019-04-21T14:34:09.943Z,26.88
2019-04-21T14:36:44.532Z,26.21
2019-04-21T14:39:18.544Z,26.79
2019-04-21T14:41:52.385Z,26.79
2019-04-21T14:44:26.989Z,27.25
2019-04-21T14:47:23.106Z,27.26
2019-04-21T14:50:22.262Z,27.15
2019-04-21T14:53:29.925Z,27.15
2019-04-21T14:56:08.823Z,27.39
2019-04-21T14:58:46.876Z,27.39
2019-04-21T15:01:20.007Z,25.85
2019-04-21T15:03:52.727Z,25.85
2019-04-21T15:06:25.865Z,25.73
2019-04-21T15:09:00.742Z,25.73
2019-04-21T15:11:38.101Z,26.78
2019-04-21T15:14:11.723Z,26.78
2019-04-21T15:16:45.324Z,25.62
2019-04-21T15:19:18.525Z,25.62
2019-04-21T15:21:52.395Z,25.45
2019-04-21T15:24:26.607Z,25.45
2019-04-21T15:27:01.005Z,26.16
2019-04-21T15:29:35.015Z,26.57
2019-04-21T15:32:08.946Z,26.29
2019-04-21T15:34:42.587Z,26.64
2019-04-21T15:37:15.821Z,26.13
2019-04-21T15:39:50.755Z,25.84
2019-04-21T15:42:24.781Z,26.58
2019-04-21T15:44:58.880Z,26.39
2019-04-21T15:47:33.809Z,26.59
2019-04-21T15:50:12.615Z,27.34
2019-04-21T15:52:43.629Z,26.55
2019-04-21T15:55:37.035Z,25.37
2019-04-21T15:58:24.792Z,26.69
2019-04-21T16:01:22.758Z,26.57
2019-04-21T16:03:58.767Z,27.95
2019-04-21T16:06:31.956Z,28.59
2019-04-21T16:09:08.410Z,28.41
2019-04-21T16:11:44.263Z,28.99
2019-04-21T16:14:18.664Z,29.28
2019-04-21T16:16:53.681Z,30.25
2019-04-21T16:19:27.344Z,30.66
2019-04-21T16:22:01.107Z,30.40
2019-04-21T16:24:35.628Z,31.22
2019-04-21T16:27:11.081Z,30.40
2019-04-21T16:29:45.756Z,30.30
2019-04-21T16:32:21.419Z,30.30
2019-04-21T16:35:01.543Z,30.61
2019-04-21T16:37:30.115Z,30.93
2019-04-21T16:40:03.443Z,31.17
2019-04-21T16:42:38.451Z,31.26
2019-04-21T16:45:12.718Z,30.72
2019-04-21T16:47:48.396Z,31.19
2019-04-21T16:50:23.577Z,31.66
2019-04-21T16:53:16.460Z,31.44
2019-04-21T16:55:59.833Z,31.90
2019-04-21T16:58:40.906Z,32.48
2019-04-21T17:01:22.081Z,32.78
2019-04-21T17:03:56.427Z,32.41
2019-04-21T17:06:29.489Z,32.96
2019-04-21T17:09:05.027Z,33.53
2019-04-21T17:11:41.540Z,33.27
2019-04-21T17:14:31.188Z,33.18
2019-04-21T17:17:16.059Z,34.15
2019-04-21T17:19:29.828Z,34.29
2019-04-21T17:22:01.780Z,34.68
2019-04-21T17:24:35.241Z,34.38
2019-04-21T17:27:09.093Z,34.41
2019-04-21T17:29:43.049Z,34.52
2019-04-21T17:32:18.362Z,34.92
2019-04-21T17:34:52.310Z,35.30
2019-04-21T17:37:27.280Z,35.95
2019-04-21T17:40:04.892Z,35.78
2019-04-21T17:42:44.992Z,36.34
2019-04-21T17:45:13.204Z,36.79
2019-04-21T17:47:54.432Z,36.69
2019-04-21T17:50:43.601Z,36.82
2019-04-21T17:53:26.507Z,37.15
2019-04-21T17:56:18.790Z,37.47
2019-04-21T17:58:52.920Z,38.03
2019-04-21T18:01:25.328Z,38.42
2019-04-21T18:04:03.628Z,38.21
2019-04-21T18:06:41.013Z,38.42
2019-04-21T18:09:28.598Z,38.80
2019-04-21T18:11:57.822Z,38.84
2019-04-21T18:14:20.234Z,39.50
2019-04-21T18:16:53.526Z,39.61
2019-04-21T18:19:30.995Z,39.77
2019-04-21T18:22:23.984Z,40.32
2019-04-21T18:25:05.789Z,40.51
2019-04-21T18:27:34.398Z,40.98
2019-04-21T18:31:10.321Z,41.27
2019-04-21T18:34:08.555Z,41.84
2019-04-21T18:36:49.862Z,42.14
2019-04-21T18:39:53.671Z,42.40
2019-04-21T18:43:05.557Z,42.78
2019-04-21T18:46:13.562Z,43.09
2019-04-21T18:48:21.950Z,43.34
2019-04-21T18:51:10.328Z,43.19
2019-04-21T18:54:14.889Z,43.76
2019-04-21T18:56:33.788Z,43.93
2019-04-21T18:59:08.864Z,43.91
2019-04-21T19:01:50.537Z,44.56
2019-04-21T19:04:20.486Z,44.54
